Time;durP1;ratioP1;P1;durP2;ratioP2;P2;SDS_P1;SDS_P2;PMS_P1;PMS_P2;Temp;Humidity;BMP_temperature;BMP_pressure;BME280_temperature;BME280_humidity;BME280_pressure;Samples;Min_cycle;Max_cycle;Signal;HPM_P1;HPM_P2
2023/09/16 00:00:54;;;;;;;17.73;12.43;;;15.40;60.80;;;;;;5095984;27;47055;-81
2023/09/16 00:03:20;;;;;;;15.97;12.20;;;15.40;61.90;;;;;;5088583;27;46832;-80
2023/09/16 00:05:45;;;;;;;19.47;13.47;;;15.40;60.70;;;;;;5095906;27;49117;-80
2023/09/16 00:08:11;;;;;;;21.87;12.03;;;15.30;60.80;;;;;;5085629;27;46474;-79
2023/09/16 00:10:36;;;;;;;19.30;13.20;;;15.30;60.90;;;;;;5106131;27;46611;-80
2023/09/16 00:13:03;;;;;;;21.83;12.80;;;15.40;61.10;;;;;;5093998;27;46578;-81
2023/09/16 00:15:29;;;;;;;22.07;14.50;;;15.40;61.10;;;;;;5085791;27;48626;-82
2023/09/16 00:17:55;;;;;;;19.03;12.97;;;15.40;61.10;;;;;;5107937;27;46194;-82
2023/09/16 00:20:21;;;;;;;18.80;12.93;;;15.50;61.10;;;;;;5105511;27;46452;-81
2023/09/16 00:22:47;;;;;;;14.77;11.30;;;15.30;61.20;;;;;;5106975;27;46495;-80
2023/09/16 00:25:13;;;;;;;19.73;11.50;;;15.20;61.40;;;;;;5088438;27;48134;-81
2023/09/16 00:27:39;;;;;;;15.97;12.13;;;15.10;61.60;;;;;;5087043;27;46471;-79
2023/09/16 00:30:05;;;;;;;17.63;11.27;;;15.10;61.50;;;;;;5090441;27;46530;-80
2023/09/16 00:32:31;;;;;;;19.50;11.43;;;15.00;61.40;;;;;;5108753;27;46492;-81
2023/09/16 00:34:58;;;;;;;18.97;12.27;;;14.90;61.30;;;;;;5106705;27;47027;-81
2023/09/16 00:37:23;;;;;;;16.40;12.13;;;14.90;61.30;;;;;;5089220;27;46535;-81
2023/09/16 00:39:49;;;;;;;21.17;12.50;;;14.90;61.60;;;;;;5108089;27;46412;-81
2023/09/16 00:42:16;;;;;;;17.90;12.17;;;14.80;61.70;;;;;;5105904;27;46594;-79
2023/09/16 00:44:41;;;;;;;19.27;12.10;;;14.80;61.70;;;;;;5087714;27;48240;-80
2023/09/16 00:47:07;;;;;;;23.73;14.00;;;14.80;61.70;;;;;;5105542;27;46477;-79
2023/09/16 00:49:33;;;;;;;20.53;12.47;;;14.70;61.70;;;;;;5094017;27;46902;-79
2023/09/16 00:51:59;;;;;;;16.33;12.03;;;14.70;61.70;;;;;;5092486;27;47074;-79
2023/09/16 00:54:26;;;;;;;20.97;12.87;;;14.70;61.70;;;;;;5107142;27;46714;-81
2023/09/16 00:56:53;;;;;;;20.03;11.60;;;14.70;61.50;;;;;;5087759;27;46423;-82
2023/09/16 00:59:22;;;;;;;17.10;11.70;;;14.60;61.40;;;;;;5104792;27;46635;-81
2023/09/16 01:01:51;;;;;;;14.90;10.13;;;14.70;61.50;;;;;;5106965;27;46502;-79
2023/09/16 01:04:17;;;;;;;15.80;10.10;;;14.80;61.30;;;;;;5109823;27;47102;-82
2023/09/16 01:06:43;;;;;;;13.30;10.20;;;14.60;61.30;;;;;;5091289;27;46477;-80
2023/09/16 01:09:10;;;;;;;13.80;10.40;;;14.40;61.40;;;;;;5108429;27;46435;-79
2023/09/16 01:11:38;;;;;;;17.23;12.60;;;14.40;61.70;;;;;;5109466;27;45887;-79
2023/09/16 01:14:04;;;;;;;16.27;12.10;;;14.40;61.70;;;;;;5093139;27;49207;-80
2023/09/16 01:16:32;;;;;;;17.50;10.60;;;14.30;61.70;;;;;;5108708;27;46516;-80
2023/09/16 01:19:29;;;;;;;17.63;9.97;;;14.40;61.70;;;;;;5091657;27;47217;-80
2023/09/16 01:21:55;;;;;;;15.20;10.43;;;14.20;61.70;;;;;;5077722;27;46748;-81
2023/09/16 01:24:24;;;;;;;13.63;10.07;;;14.10;61.80;;;;;;5107077;27;47641;-78
2023/09/16 01:26:50;;;;;;;19.67;11.83;;;14.10;61.60;;;;;;5109038;27;47005;-83
2023/09/16 01:29:18;;;;;;;15.90;11.17;;;14.10;61.50;;;;;;5109966;27;46806;-80
2023/09/16 01:31:45;;;;;;;16.00;11.50;;;14.00;61.40;;;;;;5110895;27;46842;-82
2023/09/16 01:34:41;;;;;;;16.57;12.00;;;14.00;61.50;;;;;;5093380;27;47101;-80
2023/09/16 01:37:13;;;;;;;15.63;10.60;;;13.90;61.60;;;;;;5097225;27;46572;-80
2023/09/16 01:39:40;;;;;;;15.73;10.80;;;13.90;61.70;;;;;;5114544;27;46508;-80
2023/09/16 01:42:06;;;;;;;21.10;11.80;;;13.80;61.60;;;;;;5102700;27;46849;-81
2023/09/16 01:44:32;;;;;;;24.80;12.47;;;13.80;61.60;;;;;;5107068;27;46417;-81
2023/09/16 01:46:57;;;;;;;17.40;12.47;;;13.90;62.70;;;;;;5109212;27;46444;-81
2023/09/16 01:49:23;;;;;;;21.53;13.30;;;13.90;61.40;;;;;;5111511;27;46484;-83
2023/09/16 01:51:49;;;;;;;15.27;10.97;;;13.90;61.20;;;;;;5111349;27;46419;-81
2023/09/16 01:54:14;;;;;;;16.93;10.53;;;13.90;61.10;;;;;;5109262;27;47250;-80
2023/09/16 01:56:41;;;;;;;17.70;11.60;;;13.90;61.10;;;;;;5110070;27;45863;-81
2023/09/16 01:59:07;;;;;;;17.40;11.97;;;13.90;61.30;;;;;;5110215;27;46747;-80
2023/09/16 02:01:32;;;;;;;14.50;9.50;;;13.90;61.40;;;;;;5090822;27;46399;-81
2023/09/16 02:03:58;;;;;;;16.47;11.33;;;13.90;61.40;;;;;;5105568;27;48053;-80
2023/09/16 02:06:23;;;;;;;16.50;11.50;;;13.90;61.20;;;;;;5106045;27;46481;-83
2023/09/16 02:08:49;;;;;;;16.43;11.60;;;14.00;61.00;;;;;;5108359;27;46802;-81
2023/09/16 02:11:14;;;;;;;16.40;11.27;;;14.10;60.70;;;;;;5091231;27;46624;-79
2023/09/16 02:13:40;;;;;;;17.50;11.77;;;14.10;60.60;;;;;;5106982;27;47052;-81
2023/09/16 02:16:06;;;;;;;14.70;11.20;;;14.20;60.50;;;;;;5106397;27;46922;-80
2023/09/16 02:18:31;;;;;;;20.87;11.53;;;14.20;60.20;;;;;;5104554;27;47044;-81
2023/09/16 02:20:57;;;;;;;21.80;13.00;;;14.30;60.00;;;;;;5092643;27;46493;-79
2023/09/16 02:23:22;;;;;;;17.47;11.63;;;14.30;59.90;;;;;;5108769;27;46506;-81
2023/09/16 02:25:48;;;;;;;18.33;11.90;;;14.60;59.80;;;;;;5088313;27;46686;-81
2023/09/16 02:28:14;;;;;;;15.13;11.97;;;14.50;59.50;;;;;;5108876;27;46684;-80
2023/09/16 02:30:39;;;;;;;17.23;10.70;;;14.50;59.40;;;;;;5112823;27;46654;-81
2023/09/16 02:33:05;;;;;;;18.10;11.97;;;14.60;59.30;;;;;;5110141;27;46442;-81
2023/09/16 02:35:31;;;;;;;19.17;11.90;;;14.60;59.00;;;;;;5091450;27;46538;-83
2023/09/16 02:37:58;;;;;;;18.07;12.10;;;14.70;58.60;;;;;;5110921;27;46795;-82
2023/09/16 02:40:24;;;;;;;21.60;12.93;;;14.80;58.50;;;;;;5093454;27;46765;-80
2023/09/16 02:42:50;;;;;;;18.70;13.07;;;14.80;58.80;;;;;;5107638;27;46264;-78
2023/09/16 02:45:16;;;;;;;16.33;11.83;;;14.80;58.90;;;;;;5093758;27;46375;-82
2023/09/16 02:47:41;;;;;;;18.90;11.97;;;14.80;58.70;;;;;;5110994;27;46461;-80
2023/09/16 02:50:07;;;;;;;17.30;11.40;;;14.80;58.80;;;;;;5114006;27;47231;-80
2023/09/16 02:52:33;;;;;;;15.63;10.17;;;14.90;58.80;;;;;;5109559;27;47730;-82
2023/09/16 02:54:58;;;;;;;16.83;10.00;;;14.90;58.60;;;;;;5110188;27;46425;-82
2023/09/16 02:57:24;;;;;;;14.20;10.70;;;14.90;58.70;;;;;;5089523;27;46502;-81
2023/09/16 02:59:52;;;;;;;19.73;11.93;;;15.00;58.90;;;;;;5108433;27;46414;-82
2023/09/16 03:02:17;;;;;;;20.00;12.40;;;14.80;59.00;;;;;;5104942;27;46758;-82
2023/09/16 03:04:43;;;;;;;15.37;10.23;;;14.80;59.20;;;;;;5088594;27;47098;-81
2023/09/16 03:07:10;;;;;;;16.50;11.00;;;14.80;59.20;;;;;;5107746;27;46566;-81
2023/09/16 03:09:35;;;;;;;15.23;9.80;;;14.70;59.40;;;;;;5108929;27;46093;-80
2023/09/16 03:12:01;;;;;;;20.30;10.87;;;14.60;59.70;;;;;;5093203;27;46995;-81
2023/09/16 03:14:26;;;;;;;13.87;10.73;;;14.60;60.00;;;;;;5096511;27;46969;-84
2023/09/16 03:16:52;;;;;;;16.17;10.60;;;14.40;60.00;;;;;;5109835;27;46457;-78
2023/09/16 03:19:18;;;;;;;12.70;9.50;;;14.40;60.50;;;;;;5094694;27;46997;-81
2023/09/16 03:21:43;;;;;;;16.20;10.17;;;14.30;61.60;;;;;;5107219;27;46603;-80
2023/09/16 03:24:09;;;;;;;15.90;10.50;;;14.20;60.50;;;;;;5105246;27;46226;-80
2023/09/16 03:26:34;;;;;;;18.87;10.77;;;14.20;60.70;;;;;;5108846;27;47098;-80
2023/09/16 03:29:01;;;;;;;15.97;9.80;;;14.10;60.80;;;;;;5094076;27;46559;-80
2023/09/16 03:31:27;;;;;;;13.47;9.90;;;14.00;60.90;;;;;;5109448;27;47038;-82
2023/09/16 03:33:52;;;;;;;15.23;10.90;;;13.90;60.90;;;;;;5110219;27;46418;-80
2023/09/16 03:36:18;;;;;;;17.30;11.30;;;13.90;61.00;;;;;;5108429;27;46479;-80
2023/09/16 03:38:49;;;;;;;14.50;9.53;;;13.90;61.00;;;;;;5091162;27;46375;-81
2023/09/16 03:41:15;;;;;;;15.20;10.33;;;13.80;61.00;;;;;;5100283;27;47711;-80
2023/09/16 03:43:41;;;;;;;18.20;9.40;;;13.80;61.10;;;;;;5106462;27;46530;-82
2023/09/16 03:46:07;;;;;;;16.00;10.50;;;13.70;61.10;;;;;;5108521;27;45991;-80
2023/09/16 03:48:32;;;;;;;18.83;13.03;;;13.70;61.10;;;;;;5107015;27;46538;-79
2023/09/16 03:50:58;;;;;;;17.50;12.73;;;13.70;61.20;;;;;;5109061;27;46543;-81
2023/09/16 03:53:25;;;;;;;19.97;13.37;;;13.70;61.10;;;;;;5110914;27;45972;-82
2023/09/16 03:55:54;;;;;;;22.70;12.67;;;13.80;61.10;;;;;;5106609;27;46720;-82
2023/09/16 03:58:19;;;;;;;21.47;14.03;;;13.70;60.90;;;;;;5089165;27;46645;-81
2023/09/16 04:00:45;;;;;;;19.10;13.20;;;13.70;61.00;;;;;;5107612;27;47461;-77
2023/09/16 04:03:11;;;;;;;21.43;14.07;;;13.60;61.20;;;;;;5109219;27;46697;-81
2023/09/16 04:05:37;;;;;;;20.43;12.50;;;13.70;61.50;;;;;;5106269;27;46916;-81
2023/09/16 04:08:03;;;;;;;18.60;12.27;;;13.70;61.50;;;;;;5108138;27;46674;-79
2023/09/16 04:10:28;;;;;;;19.17;13.97;;;13.70;61.30;;;;;;5088728;27;49887;-80
2023/09/16 04:12:54;;;;;;;17.70;12.43;;;13.70;61.40;;;;;;5106258;27;46520;-83
2023/09/16 04:15:20;;;;;;;18.03;12.00;;;13.70;61.50;;;;;;5106895;27;46449;-81
2023/09/16 04:17:45;;;;;;;17.60;11.73;;;13.60;61.40;;;;;;5107525;27;46448;-80
2023/09/16 04:20:11;;;;;;;16.97;12.20;;;13.60;61.50;;;;;;5105803;27;47070;-79
2023/09/16 04:22:37;;;;;;;16.20;10.53;;;13.60;61.60;;;;;;5103938;27;47251;-80
2023/09/16 04:25:02;;;;;;;14.03;10.00;;;13.60;61.70;;;;;;5104140;27;47269;-80
2023/09/16 04:27:28;;;;;;;17.10;9.97;;;13.50;61.50;;;;;;5108107;27;46479;-80
2023/09/16 04:29:54;;;;;;;12.23;9.00;;;13.50;61.60;;;;;;5107097;27;46186;-81
2023/09/16 04:32:19;;;;;;;21.77;10.73;;;13.40;61.60;;;;;;5108308;27;45884;-81
2023/09/16 04:34:45;;;;;;;19.63;10.43;;;13.30;61.70;;;;;;5087413;27;46510;-80
2023/09/16 04:37:10;;;;;;;17.30;10.03;;;13.30;61.80;;;;;;5107601;27;46438;-81
2023/09/16 04:39:38;;;;;;;15.87;9.60;;;13.20;61.80;;;;;;5107310;27;47743;-82
2023/09/16 04:42:03;;;;;;;13.90;9.53;;;13.20;61.80;;;;;;5107723;27;45854;-82
2023/09/16 04:44:29;;;;;;;13.53;10.20;;;13.10;61.70;;;;;;5104487;27;46394;-81
2023/09/16 04:46:55;;;;;;;19.40;11.60;;;13.20;61.70;;;;;;5106868;27;45894;-81
2023/09/16 04:49:21;;;;;;;14.50;10.80;;;13.10;61.80;;;;;;5109115;27;46412;-82
2023/09/16 04:51:47;;;;;;;16.70;11.23;;;13.10;62.00;;;;;;5112586;27;46565;-83
2023/09/16 04:54:13;;;;;;;14.80;10.80;;;13.20;62.00;;;;;;5092567;27;46342;-82
2023/09/16 04:56:38;;;;;;;15.87;11.10;;;13.10;62.00;;;;;;5092055;27;46762;-82
2023/09/16 04:59:05;;;;;;;14.50;11.17;;;13.20;61.90;;;;;;5110044;27;47292;-84
2023/09/16 05:01:31;;;;;;;15.07;10.10;;;13.20;61.70;;;;;;5090709;27;46694;-84
2023/09/16 05:03:56;;;;;;;19.87;10.97;;;13.20;61.50;;;;;;5111900;27;46500;-81
2023/09/16 05:06:22;;;;;;;17.67;12.10;;;13.20;61.50;;;;;;5088120;27;46498;-80
2023/09/16 05:08:48;;;;;;;16.20;12.00;;;13.30;61.70;;;;;;5094872;27;49469;-81
2023/09/16 05:11:14;;;;;;;12.43;9.10;;;13.40;61.60;;;;;;5107981;27;46457;-80
2023/09/16 05:13:41;;;;;;;11.03;8.50;;;13.40;61.60;;;;;;5106919;27;46559;-80
2023/09/16 05:16:08;;;;;;;14.60;8.80;;;13.40;61.50;;;;;;5093463;27;46371;-80
2023/09/16 05:18:33;;;;;;;11.10;8.93;;;13.40;61.10;;;;;;5105221;27;46411;-80
2023/09/16 05:20:59;;;;;;;15.20;9.67;;;13.50;61.10;;;;;;5106560;27;46482;-80
2023/09/16 05:23:25;;;;;;;13.30;9.70;;;13.60;61.00;;;;;;5092491;27;46763;-79
2023/09/16 05:25:50;;;;;;;16.00;10.70;;;13.60;61.00;;;;;;5112858;27;46439;-81
2023/09/16 05:28:17;;;;;;;12.50;9.60;;;13.60;61.00;;;;;;5093896;27;48908;-85
2023/09/16 05:30:43;;;;;;;12.87;9.47;;;13.90;60.90;;;;;;5110435;27;46021;-81
2023/09/16 05:33:10;;;;;;;11.60;8.03;;;14.30;61.50;;;;;;5109834;27;46521;-82
2023/09/16 05:35:37;;;;;;;16.17;7.67;;;14.70;62.10;;;;;;5093502;27;46598;-80
2023/09/16 05:38:03;;;;;;;12.73;7.10;;;15.00;62.30;;;;;;5106665;27;46603;-83
2023/09/16 05:40:29;;;;;;;12.90;6.87;;;15.20;62.10;;;;;;5109022;27;45852;-84
2023/09/16 05:42:54;;;;;;;9.33;6.83;;;15.50;61.80;;;;;;5093478;27;46772;-83
2023/09/16 05:45:20;;;;;;;10.20;6.33;;;15.70;61.10;;;;;;5108061;27;46596;-81
2023/09/16 05:47:48;;;;;;;11.33;6.70;;;15.80;60.00;;;;;;5092184;27;48389;-81
2023/09/16 05:50:14;;;;;;;10.33;7.37;;;15.90;57.20;;;;;;5111589;27;46697;-81
2023/09/16 05:52:39;;;;;;;12.33;8.20;;;15.80;57.00;;;;;;5109629;27;46524;-83
2023/09/16 05:55:05;;;;;;;11.70;8.20;;;15.80;57.00;;;;;;5109434;27;46928;-83
2023/09/16 05:57:31;;;;;;;14.80;8.10;;;15.70;56.60;;;;;;5108489;27;46817;-82
2023/09/16 05:59:57;;;;;;;7.83;6.50;;;15.80;56.30;;;;;;5109696;27;46750;-82
2023/09/16 06:02:22;;;;;;;10.53;7.17;;;15.90;56.40;;;;;;5112132;27;46515;-82
2023/09/16 06:04:49;;;;;;;9.37;7.27;;;16.30;55.80;;;;;;5092292;27;47286;-84
2023/09/16 06:07:18;;;;;;;10.70;8.50;;;16.60;54.20;;;;;;5109696;27;46387;-81
2023/09/16 06:09:43;;;;;;;12.93;7.57;;;16.70;52.90;;;;;;5094797;27;46435;-82
2023/09/16 06:12:09;;;;;;;14.80;8.50;;;16.70;52.20;;;;;;5115661;27;46463;-84
2023/09/16 06:14:35;;;;;;;13.93;9.63;;;16.70;52.30;;;;;;5110575;27;46968;-80
2023/09/16 06:17:01;;;;;;;16.40;9.23;;;16.60;52.50;;;;;;5108191;27;46651;-82
2023/09/16 06:19:28;;;;;;;14.70;10.23;;;16.70;52.50;;;;;;5113527;27;46466;-80
2023/09/16 06:21:55;;;;;;;14.83;9.50;;;16.60;52.40;;;;;;5096910;27;46533;-80
2023/09/16 06:24:21;;;;;;;11.63;8.47;;;16.70;52.30;;;;;;5108967;27;46722;-77
2023/09/16 06:26:47;;;;;;;12.33;9.43;;;16.80;52.40;;;;;;5107694;27;47526;-82
2023/09/16 06:29:12;;;;;;;12.37;9.57;;;16.80;52.10;;;;;;5106324;27;46478;-83
2023/09/16 06:31:38;;;;;;;13.50;10.40;;;17.00;51.80;;;;;;5090230;27;46486;-80
2023/09/16 06:34:05;;;;;;;12.90;10.53;;;17.20;51.90;;;;;;5105444;27;46498;-81
2023/09/16 06:36:31;;;;;;;17.50;12.10;;;17.20;51.70;;;;;;5093985;27;48062;-84
2023/09/16 06:38:56;;;;;;;14.37;10.60;;;17.30;51.60;;;;;;5110287;27;46390;-82
2023/09/16 06:41:22;;;;;;;15.17;11.13;;;17.40;51.60;;;;;;5111754;27;46498;-82
2023/09/16 06:43:48;;;;;;;17.07;11.70;;;17.60;51.60;;;;;;5112370;27;46780;-84
2023/09/16 06:46:13;;;;;;;16.10;11.60;;;17.60;51.60;;;;;;5110737;27;47755;-86
2023/09/16 06:48:39;;;;;;;18.50;10.90;;;17.70;51.60;;;;;;5114840;27;46792;-82
2023/09/16 06:51:04;;;;;;;17.23;12.47;;;17.80;51.50;;;;;;5109909;27;46457;-82
2023/09/16 06:53:31;;;;;;;15.77;11.50;;;18.00;51.70;;;;;;5108312;27;46715;-79
2023/09/16 06:55:57;;;;;;;18.77;11.10;;;18.00;51.70;;;;;;5094375;27;48115;-81
2023/09/16 06:58:23;;;;;;;25.13;13.20;;;18.20;51.60;;;;;;5111206;27;46535;-81
2023/09/16 07:00:48;;;;;;;16.10;11.43;;;18.30;51.30;;;;;;5110165;27;46494;-81
2023/09/16 07:03:14;;;;;;;17.03;11.63;;;18.40;51.30;;;;;;5089344;27;46654;-82
2023/09/16 07:05:48;;;;;;;18.03;11.60;;;18.50;51.20;;;;;;5092975;27;47199;-83
2023/09/16 07:08:14;;;;;;;17.40;11.23;;;18.80;51.10;;;;;;5094783;27;46499;-82
2023/09/16 07:10:40;;;;;;;19.93;13.50;;;18.80;50.80;;;;;;5108067;27;46450;-81
2023/09/16 07:13:06;;;;;;;17.80;12.17;;;19.10;50.90;;;;;;5111874;27;46726;-81
2023/09/16 07:15:31;;;;;;;17.83;12.17;;;19.10;50.60;;;;;;5093566;27;48401;-80
2023/09/16 07:17:57;;;;;;;15.40;11.33;;;19.30;50.30;;;;;;5108309;27;46493;-82
2023/09/16 07:20:23;;;;;;;15.27;11.17;;;19.30;50.10;;;;;;5107760;27;46617;-82
2023/09/16 07:22:49;;;;;;;14.40;11.60;;;19.40;50.10;;;;;;5110835;27;46485;-82
2023/09/16 07:25:15;;;;;;;14.83;10.77;;;19.40;50.40;;;;;;5109736;27;46591;-80
2023/09/16 07:27:41;;;;;;;16.13;11.23;;;19.50;50.40;;;;;;5111840;27;46776;-82
2023/09/16 07:30:07;;;;;;;15.10;11.77;;;19.50;50.30;;;;;;5114029;27;46437;-83
2023/09/16 07:32:33;;;;;;;14.83;10.30;;;19.50;50.40;;;;;;5108624;27;46789;-81
2023/09/16 07:34:58;;;;;;;14.37;9.03;;;19.60;50.40;;;;;;5110774;27;46468;-82
2023/09/16 07:37:24;;;;;;;12.97;10.13;;;19.80;50.00;;;;;;5109053;27;45886;-81
2023/09/16 07:39:51;;;;;;;16.73;9.90;;;20.00;49.50;;;;;;5099472;27;47060;-83
2023/09/16 07:42:16;;;;;;;15.37;10.00;;;20.10;48.50;;;;;;5093265;27;46870;-82
2023/09/16 07:44:42;;;;;;;14.50;10.30;;;20.30;48.00;;;;;;5095015;27;46540;-81
2023/09/16 07:47:07;;;;;;;15.00;10.33;;;20.20;47.80;;;;;;5093599;27;46399;-81
2023/09/16 07:49:33;;;;;;;13.70;10.93;;;20.40;48.00;;;;;;5104233;27;46840;-78
2023/09/16 07:51:58;;;;;;;14.27;10.90;;;20.60;48.30;;;;;;5090684;27;46132;-81
2023/09/16 07:54:24;;;;;;;13.10;10.90;;;20.70;47.40;;;;;;5107803;27;46884;-81
2023/09/16 07:56:49;;;;;;;13.93;9.57;;;20.70;48.30;;;;;;5111350;27;46501;-81
2023/09/16 07:59:19;;;;;;;15.07;9.93;;;20.70;46.80;;;;;;5111712;27;46811;-80
2023/09/16 08:01:45;;;;;;;13.43;10.50;;;20.80;46.50;;;;;;5094947;27;46814;-80
2023/09/16 08:04:10;;;;;;;13.33;9.90;;;21.00;46.10;;;;;;5107182;27;46425;-80
2023/09/16 08:06:36;;;;;;;14.37;9.90;;;21.10;45.80;;;;;;5108866;27;46510;-79
2023/09/16 08:09:01;;;;;;;14.80;10.50;;;21.10;45.30;;;;;;5098224;27;46378;-82
2023/09/16 08:11:28;;;;;;;14.03;9.60;;;21.20;45.30;;;;;;5095353;27;46614;-82
2023/09/16 08:13:53;;;;;;;16.10;10.50;;;21.20;45.40;;;;;;5110171;27;46365;-79
2023/09/16 08:16:19;;;;;;;12.93;10.27;;;21.20;45.10;;;;;;5109929;27;46450;-81
2023/09/16 08:18:44;;;;;;;13.90;10.50;;;21.30;44.80;;;;;;5108067;27;46298;-81
2023/09/16 08:21:10;;;;;;;14.00;9.50;;;21.30;44.80;;;;;;5107451;27;46703;-79
2023/09/16 08:23:36;;;;;;;12.17;9.43;;;21.50;44.70;;;;;;5111541;27;47290;-80
2023/09/16 08:26:01;;;;;;;12.13;8.73;;;21.60;44.10;;;;;;5108999;27;46918;-79
2023/09/16 08:28:27;;;;;;;15.67;9.70;;;21.70;43.70;;;;;;5101929;27;47209;-83
2023/09/16 08:30:53;;;;;;;11.30;9.40;;;21.90;43.40;;;;;;5107036;27;46018;-83
2023/09/16 08:33:18;;;;;;;14.17;9.60;;;21.90;43.10;;;;;;5090541;27;48987;-84
2023/09/16 08:35:44;;;;;;;14.27;8.60;;;22.10;42.90;;;;;;5106644;27;46492;-79
2023/09/16 08:38:09;;;;;;;12.20;8.60;;;22.00;42.40;;;;;;5109998;27;47179;-81
2023/09/16 08:40:35;;;;;;;13.70;8.33;;;22.10;42.70;;;;;;5106837;27;47400;-79
2023/09/16 08:43:23;;;;;;;10.90;8.40;;;22.20;42.30;;;;;;5091606;27;48387;-84
2023/09/16 08:45:56;;;;;;;12.30;9.33;;;22.30;41.60;;;;;;5098429;27;46548;-81
2023/09/16 08:48:26;;;;;;;11.90;9.33;;;22.40;41.30;;;;;;5088144;27;46502;-86
2023/09/16 08:50:54;;;;;;;12.90;7.93;;;22.40;41.50;;;;;;5095623;27;46537;-82
2023/09/16 08:53:21;;;;;;;13.93;9.30;;;22.60;41.30;;;;;;5101076;27;46935;-84
2023/09/16 08:55:47;;;;;;;11.63;8.33;;;22.70;41.10;;;;;;5081515;27;46422;-81
2023/09/16 08:58:14;;;;;;;13.63;8.50;;;22.70;40.90;;;;;;5097325;27;46597;-80
2023/09/16 09:00:40;;;;;;;11.17;8.37;;;22.60;40.90;;;;;;5106516;27;46924;-78
2023/09/16 09:03:06;;;;;;;10.93;8.33;;;22.70;40.70;;;;;;5109322;27;46496;-83
2023/09/16 09:05:34;;;;;;;14.20;7.83;;;22.60;41.70;;;;;;5091539;27;47048;-83
2023/09/16 09:07:59;;;;;;;11.67;7.57;;;22.50;40.10;;;;;;5091445;27;47859;-81
2023/09/16 09:10:26;;;;;;;9.67;7.13;;;22.60;40.00;;;;;;5090806;27;46469;-81
2023/09/16 09:12:52;;;;;;;11.07;8.20;;;22.60;39.50;;;;;;5103343;27;46763;-82
2023/09/16 09:15:18;;;;;;;12.63;7.20;;;22.70;39.10;;;;;;5088018;27;46719;-82
2023/09/16 09:17:50;;;;;;;9.07;6.53;;;22.80;38.80;;;;;;5108877;27;46453;-80
2023/09/16 09:20:21;;;;;;;10.33;7.27;;;22.80;38.50;;;;;;5111537;27;46575;-80
2023/09/16 09:22:49;;;;;;;10.13;6.50;;;22.90;37.70;;;;;;5094572;27;48357;-79
2023/09/16 09:25:18;;;;;;;9.63;7.00;;;23.20;37.00;;;;;;5094552;27;46622;-77
2023/09/16 09:27:44;;;;;;;8.20;6.47;;;23.40;36.50;;;;;;5107380;27;46750;-80
2023/09/16 09:30:10;;;;;;;11.67;6.73;;;23.50;35.50;;;;;;5093605;27;46384;-77
2023/09/16 09:32:37;;;;;;;10.80;6.07;;;23.40;35.10;;;;;;5109134;27;47042;-79
2023/09/16 09:35:06;;;;;;;7.33;5.53;;;23.50;34.70;;;;;;5108260;27;46485;-78
2023/09/16 09:37:32;;;;;;;10.37;6.80;;;23.60;33.90;;;;;;5106601;27;46188;-78
2023/09/16 09:40:18;;;;;;;8.63;6.37;;;23.70;33.30;;;;;;5108652;27;46529;-80
2023/09/16 09:42:50;;;;;;;7.40;5.83;;;23.80;32.20;;;;;;5106805;27;46666;-82
2023/09/16 09:45:18;;;;;;;8.57;6.57;;;23.90;31.90;;;;;;5105876;27;46633;-80
2023/09/16 09:47:45;;;;;;;9.83;6.00;;;23.80;32.00;;;;;;5106092;27;46536;-81
2023/09/16 09:50:15;;;;;;;8.57;5.50;;;23.70;32.10;;;;;;5106782;27;46863;-81
2023/09/16 09:52:54;;;;;;;10.27;5.63;;;23.70;31.50;;;;;;5106346;27;46689;-82
2023/09/16 09:55:21;;;;;;;7.90;5.83;;;23.80;31.10;;;;;;5108843;27;46600;-83
2023/09/16 09:57:49;;;;;;;9.70;5.57;;;24.00;30.60;;;;;;5114146;27;46448;-80
2023/09/16 10:00:17;;;;;;;9.10;6.00;;;24.10;30.10;;;;;;5112800;27;46690;-83
2023/09/16 10:02:43;;;;;;;7.03;4.90;;;24.00;30.00;;;;;;5089776;27;49651;-80
2023/09/16 10:05:17;;;;;;;6.80;4.73;;;24.00;29.80;;;;;;5092490;27;46956;-80
2023/09/16 10:07:43;;;;;;;7.40;5.63;;;24.00;29.30;;;;;;5106079;27;46489;-79
2023/09/16 10:10:22;;;;;;;6.10;4.47;;;24.10;29.30;;;;;;5095314;27;46515;-80
2023/09/16 10:12:56;;;;;;;7.10;4.40;;;24.00;28.20;;;;;;5107758;27;47169;-81
2023/09/16 10:15:32;;;;;;;8.13;4.83;;;24.10;28.20;;;;;;5086464;27;46479;-80
2023/09/16 10:17:58;;;;;;;7.03;4.70;;;24.20;27.30;;;;;;5108333;27;46482;-80
2023/09/16 10:20:26;;;;;;;8.60;5.13;;;24.40;27.20;;;;;;5109784;27;45969;-79
2023/09/16 10:22:52;;;;;;;7.03;4.43;;;24.40;26.90;;;;;;5104681;27;46952;-81
2023/09/16 10:25:18;;;;;;;6.03;4.50;;;24.50;26.70;;;;;;5108772;27;45857;-80
2023/09/16 10:28:04;;;;;;;8.33;4.60;;;24.40;26.40;;;;;;5106120;27;46687;-80
2023/09/16 10:30:32;;;;;;;5.80;4.33;;;24.40;26.20;;;;;;5108682;27;46391;-80
2023/09/16 10:33:02;;;;;;;7.67;5.53;;;24.50;26.00;;;;;;5107284;27;46711;-79
2023/09/16 10:35:29;;;;;;;10.13;5.77;;;24.60;25.70;;;;;;5107930;27;46652;-80
2023/09/16 10:37:59;;;;;;;9.90;5.00;;;24.60;25.70;;;;;;5091177;27;46531;-80
2023/09/16 10:40:25;;;;;;;8.13;4.83;;;24.60;25.70;;;;;;5106363;27;46680;-81
2023/09/16 10:42:52;;;;;;;7.13;5.33;;;24.60;25.70;;;;;;5108030;27;47101;-81
2023/09/16 10:45:18;;;;;;;7.70;5.03;;;24.60;25.70;;;;;;5107128;27;46869;-81
2023/09/16 10:47:49;;;;;;;7.30;4.10;;;24.70;25.70;;;;;;5105231;27;46478;-79
2023/09/16 10:50:16;;;;;;;5.23;4.07;;;24.80;25.60;;;;;;5096841;27;46510;-80
2023/09/16 10:52:51;;;;;;;7.00;4.47;;;25.00;25.00;;;;;;5106332;27;47389;-81
2023/09/16 10:55:38;;;;;;;6.03;4.10;;;25.30;24.10;;;;;;5105716;27;46620;-82
2023/09/16 10:58:14;;;;;;;6.13;4.00;;;25.40;23.30;;;;;;5107205;27;46414;-81
2023/09/16 11:00:47;;;;;;;4.90;3.87;;;25.30;23.20;;;;;;5088426;27;46539;-82
2023/09/16 11:03:16;;;;;;;5.70;4.10;;;25.30;23.10;;;;;;5111834;27;47381;-83
2023/09/16 11:05:42;;;;;;;8.50;4.13;;;25.50;23.10;;;;;;5089258;27;46543;-81
2023/09/16 11:08:08;;;;;;;8.70;4.20;;;25.60;22.90;;;;;;5089134;27;46549;-81
2023/09/16 11:10:34;;;;;;;8.00;4.10;;;25.60;22.50;;;;;;5111272;27;46445;-78
2023/09/16 11:13:00;;;;;;;8.80;4.10;;;25.40;22.10;;;;;;5108765;27;47058;-82
2023/09/16 11:15:35;;;;;;;6.77;4.30;;;25.30;22.00;;;;;;5108675;27;46488;-82
2023/09/16 11:18:02;;;;;;;10.10;4.30;;;25.20;21.70;;;;;;5098737;27;46407;-81
2023/09/16 11:20:31;;;;;;;9.93;3.67;;;25.10;21.80;;;;;;5109396;27;46620;-81
2023/09/16 11:22:57;;;;;;;7.93;4.03;;;25.20;21.80;;;;;;5089562;27;48121;-83
2023/09/16 11:25:23;;;;;;;5.60;3.70;;;25.30;21.60;;;;;;5110406;27;46677;-81
2023/09/16 11:27:50;;;;;;;7.00;4.37;;;25.30;21.10;;;;;;5103383;27;46645;-80
2023/09/16 11:30:16;;;;;;;6.33;3.97;;;25.50;20.70;;;;;;5108414;27;46712;-81
2023/09/16 11:33:02;;;;;;;6.30;3.60;;;25.50;20.20;;;;;;5106353;27;47018;-82
2023/09/16 11:35:28;;;;;;;7.07;3.60;;;25.50;19.80;;;;;;5103893;27;46567;-80
2023/09/16 11:37:55;;;;;;;9.07;3.43;;;25.60;20.20;;;;;;5106528;27;46458;-83
2023/09/16 11:40:33;;;;;;;6.40;3.40;;;25.70;19.90;;;;;;5107010;27;46783;-80
2023/09/16 11:42:59;;;;;;;5.00;3.70;;;25.80;19.10;;;;;;5098333;27;48220;-80
2023/09/16 11:45:27;;;;;;;5.77;3.90;;;25.80;19.30;;;;;;5106547;27;46541;-81
2023/09/16 11:47:53;;;;;;;4.00;3.10;;;25.70;18.50;;;;;;5090015;27;46712;-81
2023/09/16 11:50:26;;;;;;;4.80;3.40;;;25.70;18.80;;;;;;5107620;27;46416;-83
2023/09/16 11:52:52;;;;;;;6.17;3.93;;;25.60;18.70;;;;;;5108944;27;47077;-83
2023/09/16 11:55:19;;;;;;;10.20;3.90;;;25.80;19.10;;;;;;5106012;27;46440;-79
2023/09/16 11:57:46;;;;;;;5.03;3.40;;;25.90;18.70;;;;;;5104048;27;46769;-82
2023/09/16 12:00:12;;;;;;;9.40;4.00;;;25.90;18.10;;;;;;5107651;27;46516;-78
2023/09/16 12:02:40;;;;;;;8.53;3.67;;;25.80;17.70;;;;;;5089562;27;47297;-80
2023/09/16 12:05:06;;;;;;;5.00;3.60;;;26.00;17.80;;;;;;5103824;27;46576;-81
2023/09/16 12:07:34;;;;;;;9.07;3.30;;;26.00;17.80;;;;;;5104775;27;46807;-80
2023/09/16 12:10:00;;;;;;;4.63;3.30;;;26.00;17.40;;;;;;5104642;27;46458;-80
2023/09/16 12:12:27;;;;;;;8.93;3.73;;;26.00;17.50;;;;;;5105649;27;46523;-82
2023/09/16 12:14:53;;;;;;;5.23;3.30;;;26.20;17.20;;;;;;5102198;27;46517;-82
2023/09/16 12:17:19;;;;;;;4.80;3.13;;;26.00;17.10;;;;;;5099212;27;46823;-80
2023/09/16 12:19:53;;;;;;;6.90;3.30;;;25.90;16.90;;;;;;5104385;27;47010;-77
2023/09/16 12:22:19;;;;;;;7.23;3.53;;;25.90;16.50;;;;;;5105609;27;46474;-80
2023/09/16 12:24:45;;;;;;;6.30;3.20;;;25.90;16.60;;;;;;5085578;27;46510;-81
2023/09/16 12:27:12;;;;;;;4.77;2.87;;;25.90;16.40;;;;;;5087790;27;46505;-78
2023/09/16 12:29:38;;;;;;;4.30;2.93;;;26.00;16.30;;;;;;5106401;27;46830;-81
2023/09/16 12:32:15;;;;;;;4.40;2.90;;;26.20;16.20;;;;;;5108028;27;47284;-78